Time,TemperatureF,DewpointF,PressureIn,WindDirection,WindDirectionDegrees,WindSpeedMPH,WindSpeedGustMPH,Humidity,HourlyPrecipIn,Conditions,Clouds,dailyrainin,SoftwareType,DateUTC
2013-04-13 00:00:00,45.7,40.2,29.82,WNW,292,2.0,3.0,81,0.00,RA,,0.00,WeatherDisplay:10.37,2013-04-12 22:00:00,
2013-04-13 00:05:00,46.0,40.2,29.83,WNW,293,0.0,2.7,80,0.00,,,0.00,WUHU21636XXSP,2013-04-12 22:05:00,
2013-04-13 00:10:00,46.0,40.2,29.82,WNW,292,0.0,0.0,80,0.00,CLR,,0.00,WeatherDisplay:10.37,2013-04-12 22:10:00,
2013-04-13 00:15:00,46.0,40.2,29.83,ESE,113,2.0,2.0,80,0.00,,,0.00,WUHU21636XXSP,2013-04-12 22:15:00,
2013-04-13 00:20:00,46.0,40.2,29.82,East,87,2.0,2.0,80,0.00,CLR,,0.00,WeatherDisplay:10.37,2013-04-12 22:20:00,
2013-04-13 00:25:00,46.2,40.1,29.83,SE,135,0.0,2.0,79,0.00,,,0.00,WUHU21636XXSP,2013-04-12 22:25:00,
2013-04-13 00:30:00,46.2,40.1,29.82,SW,225,0.0,0.0,79,0.00,CLR,,0.00,WeatherDisplay:10.37,2013-04-12 22:30:00,
2013-04-13 00:35:00,46.0,39.9,29.84,SE,135,0.0,0.0,79,0.00,,,0.00,WUHU21636XXSP,2013-04-12 22:35:00,
2013-04-13 00:40:00,46.0,39.9,29.83,ESE,123,0.0,0.0,79,0.00,CLR,,0.00,WeatherDisplay:10.37,2013-04-12 22:40:00,
2013-04-13 00:45:00,46.4,40.0,29.84,SE,135,0.0,0.0,78,0.00,,,0.00,WUHU21636XXSP,2013-04-12 22:45:00,
2013-04-13 00:50:00,46.6,40.2,29.84,SE,135,0.0,0.0,78,0.00,,,0.00,WUHU21636XXSP,2013-04-12 22:50:00,
2013-04-13 00:55:00,46.4,40.0,29.84,SE,135,0.0,0.0,78,0.00,,,0.00,WUHU21636XXSP,2013-04-12 22:55:00,
2013-04-13 01:00:00,46.2,40.1,29.84,SE,135,0.0,0.0,79,0.00,,,0.00,WUHU21636XXSP,2013-04-12 23:00:00,
2013-04-13 01:05:00,46.0,39.9,29.85,SE,135,0.0,0.0,79,0.00,,,0.00,WUHU21636XXSP,2013-04-12 23:05:00,
2013-04-13 01:10:00,46.0,39.9,29.85,SE,135,0.0,0.0,79,0.00,,,0.00,WUHU21636XXSP,2013-04-12 23:10:00,
2013-04-13 01:15:00,46.0,40.2,29.85,WNW,293,0.0,0.0,80,0.00,,,0.00,WUHU21636XXSP,2013-04-12 23:15:00,
2013-04-13 01:20:00,46.0,40.2,29.86,WNW,293,0.7,0.7,80,0.00,,,0.00,WUHU21636XXSP,2013-04-12 23:20:00,
2013-04-13 01:25:00,46.0,40.2,29.86,WNW,293,1.8,1.8,80,0.00,,,0.00,WUHU21636XXSP,2013-04-12 23:25:00,
2013-04-13 01:30:00,46.2,40.4,29.87,WNW,293,2.9,2.9,80,0.00,,,0.00,WUHU21636XXSP,2013-04-12 23:30:00,
2013-04-13 01:35:00,46.8,41.0,29.87,ESE,113,0.0,2.9,80,0.00,,,0.00,WUHU21636XXSP,2013-04-12 23:35:00,
2013-04-13 01:40:00,46.9,40.8,29.87,NW,315,1.3,2.9,79,0.00,,,0.00,WUHU21636XXSP,2013-04-12 23:40:00,
2013-04-13 01:45:00,46.9,40.8,29.87,WNW,293,0.0,1.3,79,0.00,,,0.00,WUHU21636XXSP,2013-04-12 23:45:00,
2013-04-13 01:50:00,47.1,40.6,29.87,ESE,113,1.8,1.8,78,0.00,,,0.00,WUHU21636XXSP,2013-04-12 23:50:00,
2013-04-13 01:55:00,47.3,40.8,29.87,ESE,113,0.0,1.8,78,0.00,,,0.00,WUHU21636XXSP,2013-04-12 23:55:00,
2013-04-13 02:00:00,47.5,41.0,29.87,WNW,293,2.5,2.5,78,0.00,,,0.00,WUHU21636XXSP,2013-04-13 00:00:00,
2013-04-13 02:05:00,47.5,41.0,29.87,SE,135,3.6,3.6,78,0.00,,,0.00,WUHU21636XXSP,2013-04-13 00:05:00,
2013-04-13 02:10:00,47.8,41.3,29.87,ESE,113,4.5,4.5,78,0.00,,,0.00,WUHU21636XXSP,2013-04-13 00:10:00,
2013-04-13 02:15:00,47.8,41.3,29.87,East,90,0.0,4.5,78,0.00,,,0.00,WUHU21636XXSP,2013-04-13 00:15:00,
2013-04-13 02:20:00,47.8,41.0,29.87,ESE,113,1.8,4.5,77,0.00,,,0.00,WUHU21636XXSP,2013-04-13 00:20:00,
2013-04-13 02:25:00,47.8,41.0,29.88,SSE,158,0.0,1.8,77,0.00,,,0.00,WUHU21636XXSP,2013-04-13 00:25:00,
2013-04-13 02:30:00,47.8,41.0,29.88,WNW,293,2.0,2.0,77,0.00,,,0.00,WUHU21636XXSP,2013-04-13 00:30:00,
2013-04-13 02:35:00,47.8,41.3,29.88,ESE,113,3.6,3.6,78,0.00,,,0.00,WUHU21636XXSP,2013-04-13 00:35:00,
2013-04-13 02:40:00,47.8,41.3,29.88,SE,135,2.9,3.6,78,0.00,,,0.00,WUHU21636XXSP,2013-04-13 00:40:00,
2013-04-13 02:45:00,47.8,41.3,29.88,ESE,113,0.0,3.6,78,0.00,,,0.00,WUHU21636XXSP,2013-04-13 00:45:00,
2013-04-13 02:50:00,47.8,41.3,29.88,SE,135,2.5,2.9,78,0.00,,,0.00,WUHU21636XXSP,2013-04-13 00:50:00,
2013-04-13 02:55:00,47.8,41.3,29.89,ESE,113,1.1,2.5,78,0.00,,,0.00,WUHU21636XXSP,2013-04-13 00:55:00,
2013-04-13 03:00:00,47.8,41.3,29.89,East,90,0.0,2.5,78,0.00,,,0.00,WUHU21636XXSP,2013-04-13 01:00:00,
2013-04-13 03:05:00,47.8,41.3,29.89,SE,135,1.6,1.6,78,0.00,,,0.00,WUHU21636XXSP,2013-04-13 01:05:00,
2013-04-13 03:10:00,47.8,41.3,29.89,SE,135,0.0,1.6,78,0.00,,,0.00,WUHU21636XXSP,2013-04-13 01:10:00,
2013-04-13 03:15:00,47.8,41.3,29.90,SE,135,0.0,1.6,78,0.00,,,0.00,WUHU21636XXSP,2013-04-13 01:15:00,
2013-04-13 03:20:00,47.8,41.6,29.90,WNW,293,1.3,1.3,79,0.00,,,0.00,WUHU21636XXSP,2013-04-13 01:20:00,
2013-04-13 03:25:00,47.8,41.6,29.90,NW,315,0.0,1.3,79,0.00,,,0.00,WUHU21636XXSP,2013-04-13 01:25:00,
2013-04-13 03:30:00,47.8,41.6,29.90,SE,135,0.0,1.3,79,0.00,,,0.00,WUHU21636XXSP,2013-04-13 01:30:00,
2013-04-13 03:35:00,48.0,41.8,29.90,SSE,158,0.0,0.0,79,0.00,,,0.00,WUHU21636XXSP,2013-04-13 01:35:00,
2013-04-13 03:40:00,48.0,41.5,29.90,NW,315,3.6,3.6,78,0.00,,,0.00,WUHU21636XXSP,2013-04-13 01:40:00,
2013-04-13 03:45:00,48.4,41.9,29.90,NW,315,2.7,3.6,78,0.00,,,0.00,WUHU21636XXSP,2013-04-13 01:45:00,
2013-04-13 03:50:00,48.4,41.9,29.90,WNW,293,1.6,3.6,78,0.00,,,0.00,WUHU21636XXSP,2013-04-13 01:50:00,
2013-04-13 03:55:00,48.6,41.8,29.90,West,270,0.0,2.7,77,0.00,,,0.00,WUHU21636XXSP,2013-04-13 01:55:00,
2013-04-13 04:00:00,48.7,41.9,29.91,SE,135,1.8,1.8,77,0.00,,,0.00,WUHU21636XXSP,2013-04-13 02:00:00,
2013-04-13 04:05:00,48.9,42.1,29.91,ESE,113,1.8,1.8,77,0.00,,,0.00,WUHU21636XXSP,2013-04-13 02:05:00,
2013-04-13 04:10:00,48.9,42.1,29.91,SE,135,3.4,3.4,77,0.00,,,0.00,WUHU21636XXSP,2013-04-13 02:10:00,
2013-04-13 04:15:00,49.1,41.9,29.91,WNW,293,0.0,3.4,76,0.00,,,0.00,WUHU21636XXSP,2013-04-13 02:15:00,
2013-04-13 04:20:00,49.3,42.1,29.91,SSE,158,0.0,3.4,76,0.00,,,0.00,WUHU21636XXSP,2013-04-13 02:20:00,
2013-04-13 04:25:00,49.5,42.0,29.91,WNW,293,0.0,0.0,75,0.00,,,0.00,WUHU21636XXSP,2013-04-13 02:25:00,
2013-04-13 04:30:00,49.5,42.0,29.91,WNW,293,0.9,0.9,75,0.00,,,0.00,WUHU21636XXSP,2013-04-13 02:30:00,
2013-04-13 04:35:00,49.6,42.1,29.92,ESE,113,3.8,3.8,75,0.00,,,0.00,WUHU21636XXSP,2013-04-13 02:35:00,
2013-04-13 04:40:00,49.6,41.7,29.92,West,270,1.6,3.8,74,0.00,,,0.00,WUHU21636XXSP,2013-04-13 02:40:00,
2013-04-13 04:45:00,49.6,41.7,29.92,WNW,293,4.0,4.0,74,0.00,,,0.00,WUHU21636XXSP,2013-04-13 02:45:00,
2013-04-13 04:50:00,49.6,41.7,29.93,WNW,293,3.6,4.0,74,0.00,,,0.00,WUHU21636XXSP,2013-04-13 02:50:00,
2013-04-13 04:55:00,49.5,41.3,29.93,West,270,1.3,4.0,73,0.00,,,0.00,WUHU21636XXSP,2013-04-13 02:55:00,
2013-04-13 05:00:00,49.5,41.3,29.93,WNW,293,2.2,3.6,73,0.00,,,0.00,WUHU21636XXSP,2013-04-13 03:00:00,
2013-04-13 05:05:00,49.5,41.3,29.93,WNW,293,3.6,3.6,73,0.00,,,0.00,WUHU21636XXSP,2013-04-13 03:05:00,
2013-04-13 05:10:00,49.3,41.1,29.93,WNW,293,2.2,3.6,73,0.00,,,0.00,WUHU21636XXSP,2013-04-13 03:10:00,
2013-04-13 05:15:00,49.3,41.4,29.93,WNW,293,2.0,3.6,74,0.00,,,0.00,WUHU21636XXSP,2013-04-13 03:15:00,
2013-04-13 05:20:00,49.3,41.4,29.93,WNW,293,0.0,2.2,74,0.00,,,0.00,WUHU21636XXSP,2013-04-13 03:20:00,
2013-04-13 05:25:00,49.1,41.2,29.93,WNW,293,2.2,2.2,74,0.00,,,0.00,WUHU21636XXSP,2013-04-13 03:25:00,
2013-04-13 05:30:00,48.9,41.1,29.93,WNW,293,0.0,2.2,74,0.00,,,0.00,WUHU21636XXSP,2013-04-13 03:30:00,
2013-04-13 05:35:00,48.9,41.1,29.93,South,180,1.1,2.2,74,0.00,,,0.00,WUHU21636XXSP,2013-04-13 03:35:00,
2013-04-13 05:40:00,48.7,40.9,29.93,ESE,113,2.5,2.5,74,0.00,,,0.00,WUHU21636XXSP,2013-04-13 03:40:00,
2013-04-13 05:45:00,48.7,41.2,29.94,SE,135,1.6,2.5,75,0.00,,,0.00,WUHU21636XXSP,2013-04-13 03:45:00,
2013-04-13 05:50:00,48.6,41.1,29.94,ESE,113,0.0,2.5,75,0.00,,,0.00,WUHU21636XXSP,2013-04-13 03:50:00,
2013-04-13 05:55:00,48.6,41.1,29.94,SE,135,0.0,1.6,75,0.00,,,0.00,WUHU21636XXSP,2013-04-13 03:55:00,
2013-04-13 06:00:00,48.4,40.9,29.94,ESE,113,0.4,0.4,75,0.00,,,0.00,WUHU21636XXSP,2013-04-13 04:00:00,
2013-04-13 06:05:00,48.2,40.7,29.94,WNW,293,0.0,0.4,75,0.00,,,0.00,WUHU21636XXSP,2013-04-13 04:05:00,
2013-04-13 06:10:00,48.0,40.5,29.94,SE,135,0.0,0.4,75,0.00,,,0.00,WUHU21636XXSP,2013-04-13 04:10:00,
2013-04-13 06:15:00,48.0,40.5,29.94,SE,135,2.2,2.2,75,0.00,,,0.00,WUHU21636XXSP,2013-04-13 04:15:00,
2013-04-13 06:20:00,47.8,40.3,29.94,ESE,113,1.1,2.2,75,0.00,,,0.00,WUHU21636XXSP,2013-04-13 04:20:00,
2013-04-13 06:25:00,47.8,40.3,29.94,SE,135,0.0,2.2,75,0.00,,,0.00,WUHU21636XXSP,2013-04-13 04:25:00,
2013-04-13 06:30:00,47.8,40.3,29.94,WNW,293,0.0,1.1,75,0.00,,,0.00,WUHU21636XXSP,2013-04-13 04:30:00,
2013-04-13 06:35:00,47.5,40.0,29.95,SE,135,0.0,0.0,75,0.00,,,0.00,WUHU21636XXSP,2013-04-13 04:35:00,
2013-04-13 06:40:00,47.5,40.0,29.95,SE,135,2.5,2.5,75,0.00,,,0.00,WUHU21636XXSP,2013-04-13 04:40:00,
2013-04-13 06:45:00,47.5,40.4,29.95,ESE,113,0.0,2.5,76,0.00,,,0.00,WUHU21636XXSP,2013-04-13 04:45:00,
2013-04-13 06:50:00,47.5,40.4,29.95,ESE,113,0.4,2.5,76,0.00,,,0.00,WUHU21636XXSP,2013-04-13 04:50:00,
2013-04-13 06:55:00,47.5,40.4,29.95,NW,315,0.0,0.4,76,0.00,,,0.00,WUHU21636XXSP,2013-04-13 04:55:00,
2013-04-13 07:00:00,47.5,40.4,29.96,NE,45,0.0,0.4,76,0.00,,,0.00,WUHU21636XXSP,2013-04-13 05:00:00,
2013-04-13 07:05:00,47.3,40.2,29.96,ESE,113,2.9,2.9,76,0.00,,,0.00,WUHU21636XXSP,2013-04-13 05:05:00,
2013-04-13 07:10:00,47.3,40.2,29.96,SE,135,1.6,2.9,76,0.00,,,0.00,WUHU21636XXSP,2013-04-13 05:10:00,
2013-04-13 07:15:00,47.3,40.5,29.96,NW,315,3.4,3.4,77,0.00,,,0.00,WUHU21636XXSP,2013-04-13 05:15:00,
2013-04-13 07:20:00,47.5,40.7,29.96,WNW,293,0.0,3.4,77,0.00,,,0.00,WUHU21636XXSP,2013-04-13 05:20:00,
2013-04-13 07:25:00,47.5,40.7,29.96,WNW,293,2.9,3.4,77,0.00,,,0.00,WUHU21636XXSP,2013-04-13 05:25:00,
2013-04-13 07:30:00,47.8,41.0,29.97,NW,315,1.3,2.9,77,0.00,,,0.00,WUHU21636XXSP,2013-04-13 05:30:00,
2013-04-13 07:35:00,48.0,41.2,29.97,NW,315,0.7,2.9,77,0.00,,,0.00,WUHU21636XXSP,2013-04-13 05:35:00,
2013-04-13 07:40:00,48.2,41.1,29.97,NW,315,0.7,1.3,76,0.00,,,0.00,WUHU21636XXSP,2013-04-13 05:40:00,
2013-04-13 07:45:00,48.4,41.2,29.97,ESE,113,2.9,2.9,76,0.00,,,0.00,WUHU21636XXSP,2013-04-13 05:45:00,
2013-04-13 07:50:00,48.7,41.5,29.98,NW,315,2.5,2.9,76,0.00,,,0.00,WUHU21636XXSP,2013-04-13 05:50:00,
2013-04-13 07:55:00,48.9,41.4,29.98,SE,135,3.8,3.8,75,0.00,,,0.00,WUHU21636XXSP,2013-04-13 05:55:00,
2013-04-13 08:00:00,49.1,41.6,29.98,ESE,113,1.1,3.8,75,0.00,,,0.00,WUHU21636XXSP,2013-04-13 06:00:00,
2013-04-13 08:05:00,49.6,41.7,29.98,ESE,113,0.0,3.8,74,0.00,,,0.00,WUHU21636XXSP,2013-04-13 06:05:00,
2013-04-13 08:10:00,50.2,42.3,29.98,West,270,1.1,1.1,74,0.00,,,0.00,WUHU21636XXSP,2013-04-13 06:10:00,
2013-04-13 08:15:00,50.5,42.6,29.98,WNW,293,3.1,6.3,74,0.00,,,0.00,WUHU21636XXSP,2013-04-13 06:15:00,
2013-04-13 08:20:00,50.5,42.3,29.98,NW,315,0.0,6.3,73,0.00,,,0.00,WUHU21636XXSP,2013-04-13 06:20:00,
2013-04-13 08:25:00,50.7,42.1,29.99,ESE,113,0.0,6.3,72,0.00,,,0.00,WUHU21636XXSP,2013-04-13 06:25:00,
2013-04-13 08:30:00,50.7,42.1,29.99,WNW,293,1.6,1.6,72,0.00,,,0.00,WUHU21636XXSP,2013-04-13 06:30:00,
2013-04-13 08:35:00,50.7,42.1,29.99,East,90,1.8,1.8,72,0.00,,,0.00,WUHU21636XXSP,2013-04-13 06:35:00,
2013-04-13 08:40:00,50.7,42.1,29.99,WNW,293,0.0,1.8,72,0.00,,,0.00,WUHU21636XXSP,2013-04-13 06:40:00,
2013-04-13 08:45:00,50.9,42.3,29.99,WNW,293,2.9,2.9,72,0.00,,,0.00,WUHU21636XXSP,2013-04-13 06:45:00,
2013-04-13 08:50:00,50.9,42.3,29.99,West,270,0.4,2.9,72,0.00,,,0.00,WUHU21636XXSP,2013-04-13 06:50:00,
2013-04-13 08:55:00,51.1,42.5,29.99,NNW,338,1.6,2.9,72,0.00,,,0.00,WUHU21636XXSP,2013-04-13 06:55:00,
2013-04-13 09:00:00,51.4,42.4,30.00,East,90,0.9,1.6,71,0.00,,,0.00,WUHU21636XXSP,2013-04-13 07:00:00,
2013-04-13 09:05:00,51.6,42.6,30.00,NW,315,5.1,14.5,71,0.00,,,0.00,WUHU21636XXSP,2013-04-13 07:05:00,
2013-04-13 09:10:00,52.0,42.6,30.00,NW,315,4.9,14.5,70,0.00,,,0.00,WUHU21636XXSP,2013-04-13 07:10:00,
2013-04-13 09:15:00,52.2,42.8,30.00,NNW,338,2.0,14.5,70,0.00,,,0.00,WUHU21636XXSP,2013-04-13 07:15:00,
2013-04-13 09:20:00,52.3,42.9,30.01,WNW,293,0.4,9.2,70,0.00,,,0.00,WUHU21636XXSP,2013-04-13 07:20:00,
2013-04-13 09:25:00,52.5,42.7,30.01,ESE,113,3.1,3.1,69,0.00,,,0.00,WUHU21636XXSP,2013-04-13 07:25:00,
2013-04-13 09:30:00,52.5,42.7,30.01,NW,315,7.8,14.3,69,0.00,,,0.00,WUHU21636XXSP,2013-04-13 07:30:00,
2013-04-13 09:35:00,52.5,42.4,30.01,West,270,4.5,14.3,68,0.00,,,0.00,WUHU21636XXSP,2013-04-13 07:35:00,
2013-04-13 09:40:00,52.7,42.6,30.02,NW,315,7.4,14.3,68,0.00,,,0.00,WUHU21636XXSP,2013-04-13 07:40:00,
2013-04-13 09:45:00,52.7,42.6,30.02,WNW,293,9.2,13.4,68,0.00,,,0.00,WUHU21636XXSP,2013-04-13 07:45:00,
2013-04-13 09:50:00,52.7,42.6,30.02,WNW,293,2.7,13.4,68,0.00,,,0.00,WUHU21636XXSP,2013-04-13 07:50:00,
2013-04-13 09:55:00,52.5,42.4,30.02,North,0,0.9,13.4,68,0.00,,,0.00,WUHU21636XXSP,2013-04-13 07:55:00,
2013-04-13 10:00:00,52.5,42.4,30.02,North,0,3.1,3.1,68,0.00,,,0.00,WUHU21636XXSP,2013-04-13 08:00:00,
2013-04-13 10:05:00,52.5,42.4,30.02,ESE,113,3.6,3.6,68,0.00,,,0.00,WUHU21636XXSP,2013-04-13 08:05:00,
2013-04-13 10:10:00,52.9,42.7,30.02,ESE,113,5.1,5.1,68,0.00,,,0.00,WUHU21636XXSP,2013-04-13 08:10:00,
2013-04-13 10:15:00,53.2,42.6,30.02,WNW,293,3.4,5.1,67,0.00,,,0.00,WUHU21636XXSP,2013-04-13 08:15:00,
2013-04-13 10:20:00,54.0,42.2,30.03,SSE,158,3.1,6.9,64,0.00,,,0.00,WUHU21636XXSP,2013-04-13 08:20:00,
2013-04-13 10:25:00,54.0,42.2,30.03,WNW,293,2.9,6.9,64,0.00,,,0.00,WUHU21636XXSP,2013-04-13 08:25:00,
2013-04-13 10:30:00,54.1,41.9,30.03,North,0,1.6,6.9,63,0.00,,,0.00,WUHU21636XXSP,2013-04-13 08:30:00,
2013-04-13 10:35:00,54.3,42.1,30.03,WNW,293,0.0,2.9,63,0.00,,,0.00,WUHU21636XXSP,2013-04-13 08:35:00,
2013-04-13 10:40:00,55.0,42.8,30.03,NE,45,0.0,1.6,63,0.00,,,0.00,WUHU21636XXSP,2013-04-13 08:40:00,
2013-04-13 10:45:00,55.0,41.9,30.03,WNW,293,4.7,4.7,61,0.00,,,0.00,WUHU21636XXSP,2013-04-13 08:45:00,
2013-04-13 10:50:00,55.0,41.0,30.03,East,90,0.4,4.7,59,0.00,,,0.00,WUHU21636XXSP,2013-04-13 08:50:00,
2013-04-13 10:55:00,55.8,41.8,30.03,SE,135,4.3,7.2,59,0.00,,,0.00,WUHU21636XXSP,2013-04-13 08:55:00,
2013-04-13 11:00:00,56.5,42.4,30.04,WNW,293,7.2,8.9,59,0.00,,,0.00,WUHU21636XXSP,2013-04-13 09:00:00,
2013-04-13 11:05:00,56.5,41.1,30.04,NNW,338,4.3,8.9,56,0.00,,,0.00,WUHU21636XXSP,2013-04-13 09:05:00,
2013-04-13 11:10:00,56.8,40.9,30.04,WNW,293,4.3,8.9,55,0.00,,,0.00,WUHU21636XXSP,2013-04-13 09:10:00,
2013-04-13 11:15:00,57.0,41.1,30.04,WNW,293,9.8,9.8,55,0.00,,,0.00,WUHU21636XXSP,2013-04-13 09:15:00,
2013-04-13 11:20:00,56.1,40.7,30.04,WNW,293,6.5,17.9,56,0.00,,,0.00,WUHU21636XXSP,2013-04-13 09:20:00,
2013-04-13 11:25:00,56.1,40.7,30.05,WNW,293,9.4,17.9,56,0.00,,,0.00,WUHU21636XXSP,2013-04-13 09:25:00,
2013-04-13 11:30:00,55.9,40.5,30.05,WNW,293,1.6,17.9,56,0.00,,,0.00,WUHU21636XXSP,2013-04-13 09:30:00,
2013-04-13 11:35:00,56.7,40.8,30.05,WNW,293,3.6,15.2,55,0.00,,,0.00,WUHU21636XXSP,2013-04-13 09:35:00,
2013-04-13 11:40:00,57.0,41.1,30.05,WNW,293,4.0,9.6,55,0.00,,,0.00,WUHU21636XXSP,2013-04-13 09:40:00,
2013-04-13 11:45:00,57.4,40.4,30.05,WNW,293,3.6,9.6,53,0.00,,,0.00,WUHU21636XXSP,2013-04-13 09:45:00,
2013-04-13 11:50:00,57.2,40.8,30.06,NW,315,7.4,12.8,54,0.00,,,0.00,WUHU21636XXSP,2013-04-13 09:50:00,
2013-04-13 11:55:00,56.7,40.3,30.06,WNW,293,0.0,12.8,54,0.00,,,0.00,WUHU21636XXSP,2013-04-13 09:55:00,
2013-04-13 12:00:00,56.1,40.7,30.06,WNW,293,4.7,12.8,56,0.00,,,0.00,WUHU21636XXSP,2013-04-13 10:00:00,
2013-04-13 12:05:00,55.8,41.3,30.06,NNW,338,5.1,8.9,58,0.00,,,0.00,WUHU21636XXSP,2013-04-13 10:05:00,
2013-04-13 12:10:00,55.6,41.1,30.07,NW,315,5.6,10.3,58,0.00,,,0.00,WUHU21636XXSP,2013-04-13 10:10:00,
2013-04-13 12:15:00,55.2,40.8,30.07,NW,315,6.5,10.3,58,0.00,,,0.00,WUHU21636XXSP,2013-04-13 10:15:00,
2013-04-13 12:20:00,55.0,40.6,30.08,WNW,293,5.1,10.3,58,0.00,,,0.00,WUHU21636XXSP,2013-04-13 10:20:00,
2013-04-13 12:25:00,54.3,44.1,30.09,WNW,293,8.1,8.9,68,0.00,,,0.00,WUHU21636XXSP,2013-04-13 10:25:00,
2013-04-13 12:30:00,51.6,44.0,30.10,WNW,293,3.1,8.1,75,0.00,,,0.00,WUHU21636XXSP,2013-04-13 10:30:00,
2013-04-13 12:35:00,50.4,44.5,30.10,WNW,293,0.0,8.1,80,0.00,,,0.00,WUHU21636XXSP,2013-04-13 10:35:00,
2013-04-13 12:40:00,49.6,44.0,30.09,WNW,293,0.0,3.1,81,0.00,,,0.00,WUHU21636XXSP,2013-04-13 10:40:00,
2013-04-13 12:45:00,49.8,43.9,30.09,WNW,293,0.0,0.0,80,0.00,,,0.00,WUHU21636XXSP,2013-04-13 10:45:00,
2013-04-13 12:50:00,50.9,45.6,30.09,WNW,293,2.9,2.9,82,0.00,,,0.00,WUHU21636XXSP,2013-04-13 10:50:00,
2013-04-13 12:55:00,51.6,45.7,30.09,SE,135,0.0,2.9,80,0.00,,,0.00,WUHU21636XXSP,2013-04-13 10:55:00,
2013-04-13 13:00:00,52.5,44.9,30.09,NW,315,0.0,2.9,75,0.00,,,0.00,WUHU21636XXSP,2013-04-13 11:00:00,
2013-04-13 13:05:00,54.5,45.4,30.09,NE,45,1.3,1.3,71,0.00,,,0.00,WUHU21636XXSP,2013-04-13 11:05:00,
2013-04-13 13:10:00,55.9,44.8,30.09,WNW,293,2.5,2.5,66,0.00,,,0.00,WUHU21636XXSP,2013-04-13 11:10:00,
2013-04-13 13:15:00,57.0,44.7,30.10,NW,315,5.1,5.1,63,0.00,,,0.00,WUHU21636XXSP,2013-04-13 11:15:00,
2013-04-13 13:20:00,57.7,43.6,30.10,NW,315,2.5,5.1,59,0.00,,,0.00,WUHU21636XXSP,2013-04-13 11:20:00,
2013-04-13 13:25:00,57.7,44.5,30.10,NW,315,4.0,5.1,61,0.00,,,0.00,WUHU21636XXSP,2013-04-13 11:25:00,
2013-04-13 13:30:00,57.9,42.9,30.10,WNW,293,4.9,4.9,57,0.00,,,0.00,WUHU21636XXSP,2013-04-13 11:30:00,
2013-04-13 13:35:00,59.4,43.3,30.10,WNW,293,6.7,13.2,55,0.00,,,0.00,WUHU21636XXSP,2013-04-13 11:35:00,
2013-04-13 13:40:00,59.5,42.9,30.10,NNE,23,3.1,13.2,54,0.00,,,0.00,WUHU21636XXSP,2013-04-13 11:40:00,
2013-04-13 13:45:00,60.1,43.5,30.09,WNW,293,2.9,13.2,54,0.00,,,0.00,WUHU21636XXSP,2013-04-13 11:45:00,
2013-04-13 13:50:00,60.6,42.4,30.10,NW,315,4.9,11.6,51,0.00,,,0.00,WUHU21636XXSP,2013-04-13 11:50:00,
2013-04-13 13:55:00,60.8,41.5,30.10,WNW,293,9.6,16.6,49,0.00,,,0.00,WUHU21636XXSP,2013-04-13 11:55:00,
2013-04-13 14:00:00,61.2,40.8,30.10,WNW,293,5.8,16.6,47,0.00,,,0.00,WUHU21636XXSP,2013-04-13 12:00:00,
2013-04-13 14:05:00,60.6,40.8,30.10,NW,315,7.6,16.6,48,0.00,,,0.00,WUHU21636XXSP,2013-04-13 12:05:00,
2013-04-13 14:10:00,61.2,41.3,30.10,WNW,293,3.1,11.4,48,0.00,,,0.00,WUHU21636XXSP,2013-04-13 12:10:00,
2013-04-13 14:15:00,61.0,40.0,30.10,WNW,293,2.7,11.4,46,0.00,,,0.00,WUHU21636XXSP,2013-04-13 12:15:00,
2013-04-13 14:20:00,60.1,39.2,30.10,WNW,293,2.9,3.1,46,0.00,,,0.00,WUHU21636XXSP,2013-04-13 12:20:00,
2013-04-13 14:25:00,60.1,40.3,30.10,WNW,293,6.3,9.8,48,0.00,,,0.00,WUHU21636XXSP,2013-04-13 12:25:00,
2013-04-13 14:30:00,58.8,40.2,30.10,WNW,293,4.7,9.8,50,0.00,,,0.00,WUHU21636XXSP,2013-04-13 12:30:00,
2013-04-13 14:35:00,58.1,40.1,30.11,NW,315,4.3,9.8,51,0.00,,,0.00,WUHU21636XXSP,2013-04-13 12:35:00,
2013-04-13 14:40:00,57.9,40.4,30.11,NW,315,6.9,11.0,52,0.00,,,0.00,WUHU21636XXSP,2013-04-13 12:40:00,
2013-04-13 14:45:00,58.1,40.6,30.11,WNW,293,3.4,11.0,52,0.00,,,0.00,WUHU21636XXSP,2013-04-13 12:45:00,
2013-04-13 14:50:00,58.6,40.0,30.11,WNW,293,3.1,11.0,50,0.00,,,0.00,WUHU21636XXSP,2013-04-13 12:50:00,
2013-04-13 14:53:00,58.3,40.3,30.11,WNW,292,3.8,3.8,51,0.00,,,0.00,WUHU21636XXSP,2013-04-13 12:53:00,
2013-04-13 14:58:00,58.3,40.3,30.11,WNW,292,6.3,6.5,51,0.00,,,0.00,WUHU21636XXSP,2013-04-13 12:58:00,
2013-04-13 15:03:00,58.6,41.0,30.11,SSW,202,2.7,11.6,52,0.00,,,0.00,WUHU21636XXSP,2013-04-13 13:03:00,
2013-04-13 15:08:00,58.8,39.6,30.11,West,270,2.9,14.1,50,0.00,,,0.00,WUHU21636XXSP,2013-04-13 13:08:00,
2013-04-13 15:13:00,58.8,40.3,30.11,WNW,292,2.0,14.1,50,0.00,,,0.00,WUHU21636XXSP,2013-04-13 13:13:00,
2013-04-13 15:18:00,58.6,40.1,30.12,WNW,292,2.7,4.3,50,0.00,,,0.00,WUHU21636XXSP,2013-04-13 13:18:00,
2013-04-13 15:25:00,58.6,40.5,30.11,NW,315,3.1,15.4,51,0.00,,,0.00,WUHU21636XXSP,2013-04-13 13:25:00,
2013-04-13 15:30:00,60.1,40.3,30.11,WNW,293,4.5,13.4,48,0.00,,,0.00,WUHU21636XXSP,2013-04-13 13:30:00,
2013-04-13 15:35:00,59.7,40.5,30.11,WNW,293,7.2,9.2,49,0.00,,,0.00,WUHU21636XXSP,2013-04-13 13:35:00,
2013-04-13 15:40:00,59.7,40.5,30.11,WNW,292,7.0,9.0,49,0.00,FEW,,0.02,WeatherDisplay:10.37,2013-04-13 13:40:00,
2013-04-13 15:45:00,59.2,40.0,30.12,NW,315,2.5,9.2,49,0.00,,,0.00,WUHU21636XXSP,2013-04-13 13:45:00,
2013-04-13 15:50:00,59.2,40.0,30.12,WNW,293,1.3,4.3,49,0.00,,,0.00,WUHU21636XXSP,2013-04-13 13:50:00,
2013-04-13 15:55:00,59.2,41.6,30.13,WNW,293,4.5,7.4,52,0.00,,,0.00,WUHU21636XXSP,2013-04-13 13:55:00,
2013-04-13 16:00:00,59.2,41.6,30.12,WNW,292,5.0,7.0,52,0.00,CLR,,0.02,WeatherDisplay:10.37,2013-04-13 14:00:00,
2013-04-13 16:05:00,59.7,40.5,30.13,SE,135,0.7,10.5,49,0.00,,,0.00,WUHU21636XXSP,2013-04-13 14:05:00,
2013-04-13 16:10:00,59.7,40.5,30.12,WNW,290,1.0,11.0,49,0.00,CLR,,0.02,WeatherDisplay:10.37,2013-04-13 14:10:00,
2013-04-13 16:15:00,59.0,39.8,30.13,WNW,293,3.8,3.8,49,0.00,,,0.00,WUHU21636XXSP,2013-04-13 14:15:00,
2013-04-13 16:20:00,58.8,39.1,30.13,NW,315,5.1,5.1,48,0.00,,,0.00,WUHU21636XXSP,2013-04-13 14:20:00,
2013-04-13 16:25:00,58.8,39.1,30.13,NW,315,7.8,8.7,48,0.00,,,0.00,WUHU21636XXSP,2013-04-13 14:25:00,
2013-04-13 16:30:00,58.8,39.2,30.12,NW,315,8.0,9.0,48,0.00,FEW,,0.02,WeatherDisplay:10.37,2013-04-13 14:30:00,
2013-04-13 16:35:00,59.2,39.5,30.13,NW,315,4.5,8.7,48,0.00,,,0.00,WUHU21636XXSP,2013-04-13 14:35:00,
2013-04-13 16:40:00,59.7,39.9,30.12,WNW,293,6.5,9.2,48,0.00,,,0.00,WUHU21636XXSP,2013-04-13 14:40:00,
2013-04-13 16:45:00,61.0,40.6,30.13,NW,315,2.5,9.2,47,0.00,,,0.00,WUHU21636XXSP,2013-04-13 14:45:00,
2013-04-13 16:50:00,61.0,40.6,30.12,WNW,298,2.0,9.0,47,0.00,FEW,,0.02,WeatherDisplay:10.37,2013-04-13 14:50:00,
2013-04-13 16:55:00,61.7,40.1,30.13,WNW,293,5.8,10.7,45,0.00,,,0.00,WUHU21636XXSP,2013-04-13 14:55:00,
2013-04-13 17:00:00,61.7,40.1,30.12,WNW,292,6.0,11.0,45,0.00,FEW,,0.02,WeatherDisplay:10.37,2013-04-13 15:00:00,
2013-04-13 17:05:00,60.3,41.0,30.13,ESE,113,2.0,6.7,49,0.00,,,0.00,WUHU21636XXSP,2013-04-13 15:05:00,
2013-04-13 17:10:00,60.3,41.0,30.12,WNW,292,2.0,2.0,49,0.00,FEW,,0.02,WeatherDisplay:10.37,2013-04-13 15:10:00,
2013-04-13 17:15:00,61.5,41.6,30.13,WNW,293,0.4,2.2,48,0.00,,,0.00,WUHU21636XXSP,2013-04-13 15:15:00,
2013-04-13 17:20:00,61.5,41.6,30.12,WNW,292,0.0,2.0,48,0.00,FEW,,0.02,WeatherDisplay:10.37,2013-04-13 15:20:00,
2013-04-13 17:25:00,63.1,40.7,30.13,WNW,293,0.7,2.2,44,0.00,,,0.00,WUHU21636XXSP,2013-04-13 15:25:00,
2013-04-13 17:30:00,63.1,40.9,30.12,WNW,292,1.0,2.0,44,0.00,FEW,,0.02,WeatherDisplay:10.37,2013-04-13 15:30:00,
2013-04-13 17:35:00,63.7,40.7,30.13,WNW,293,4.7,4.7,43,0.00,,,0.00,WUHU21636XXSP,2013-04-13 15:35:00,
2013-04-13 17:40:00,63.7,40.8,30.12,WNW,292,5.0,5.0,43,0.00,FEW,,0.02,WeatherDisplay:10.37,2013-04-13 15:40:00,
2013-04-13 17:45:00,64.2,40.5,30.14,WNW,293,2.2,4.7,42,0.00,,,0.00,WUHU21636XXSP,2013-04-13 15:45:00,
2013-04-13 17:50:00,64.2,40.6,30.13,NW,305,2.0,3.0,42,0.00,FEW,,0.02,WeatherDisplay:10.37,2013-04-13 15:50:00,
2013-04-13 17:55:00,64.2,42.9,30.13,East,90,1.3,2.2,46,0.00,,,0.00,WUHU21636XXSP,2013-04-13 15:55:00,
2013-04-13 18:00:00,64.2,43.0,30.12,East,80,1.0,1.0,46,0.00,FEW,,0.02,WeatherDisplay:10.37,2013-04-13 16:00:00,
2013-04-13 18:05:00,63.5,42.3,30.14,WNW,293,0.0,2.5,46,0.00,,,0.00,WUHU21636XXSP,2013-04-13 16:05:00,
2013-04-13 18:10:00,63.5,42.3,30.13,NW,308,0.0,2.0,46,0.00,FEW,,0.02,WeatherDisplay:10.37,2013-04-13 16:10:00,
2013-04-13 18:15:00,61.2,40.8,30.14,WNW,293,0.0,0.0,47,0.00,,,0.00,WUHU21636XXSP,2013-04-13 16:15:00,
2013-04-13 18:20:00,61.2,40.8,30.13,West,270,0.0,0.0,47,0.00,SCT,,0.02,WeatherDisplay:10.37,2013-04-13 16:20:00,
2013-04-13 18:25:00,60.1,40.9,30.14,WNW,293,0.0,0.0,49,0.00,,,0.00,WUHU21636XXSP,2013-04-13 16:25:00,
2013-04-13 18:30:00,60.1,40.8,30.13,WNW,292,0.0,0.0,49,0.00,SCT,,0.02,WeatherDisplay:10.37,2013-04-13 16:30:00,
2013-04-13 18:35:00,59.2,41.1,30.14,WNW,293,0.0,0.0,51,0.00,,,0.00,WUHU21636XXSP,2013-04-13 16:35:00,
2013-04-13 18:40:00,59.2,41.1,30.14,WNW,292,0.0,0.0,51,0.00,SCT,,0.02,WeatherDisplay:10.37,2013-04-13 16:40:00,
2013-04-13 18:45:00,58.6,41.6,30.15,WNW,293,0.0,0.0,53,0.00,,,0.00,WUHU21636XXSP,2013-04-13 16:45:00,
2013-04-13 18:50:00,58.6,41.5,30.14,WNW,292,0.0,0.0,53,0.00,CLR,,0.02,WeatherDisplay:10.37,2013-04-13 16:50:00,
2013-04-13 18:55:00,58.3,41.8,30.15,SSE,158,0.0,0.0,54,0.00,,,0.00,WUHU21636XXSP,2013-04-13 16:55:00,
2013-04-13 19:00:00,58.1,41.6,30.15,ESE,113,0.0,0.0,54,0.00,,,0.00,WUHU21636XXSP,2013-04-13 17:00:00,
2013-04-13 19:05:00,57.7,41.7,30.15,SE,135,0.0,0.0,55,0.00,,,0.00,WUHU21636XXSP,2013-04-13 17:05:00,
2013-04-13 19:10:00,57.7,41.7,30.14,ESE,123,0.0,0.0,55,0.00,CLR,,0.02,WeatherDisplay:10.37,2013-04-13 17:10:00,
2013-04-13 19:15:00,56.8,41.3,30.16,SE,135,0.0,0.0,56,0.00,,,0.00,WUHU21636XXSP,2013-04-13 17:15:00,
2013-04-13 19:20:00,57.0,42.0,30.16,SE,135,0.0,0.0,57,0.00,,,0.00,WUHU21636XXSP,2013-04-13 17:20:00,
2013-04-13 19:25:00,57.0,42.0,30.16,SE,135,0.0,0.0,57,0.00,,,0.00,WUHU21636XXSP,2013-04-13 17:25:00,
2013-04-13 19:30:00,57.0,41.9,30.16,SE,135,0.0,0.0,57,0.00,CLR,,0.02,WeatherDisplay:10.37,2013-04-13 17:30:00,
2013-04-13 19:35:00,56.8,41.8,30.17,WNW,293,0.4,0.4,57,0.00,,,0.00,WUHU21636XXSP,2013-04-13 17:35:00,
2013-04-13 19:40:00,56.7,42.2,30.17,WNW,293,0.0,0.4,58,0.00,,,0.00,WUHU21636XXSP,2013-04-13 17:40:00,
2013-04-13 19:45:00,56.3,41.8,30.17,WNW,293,0.0,0.4,58,0.00,,,0.00,WUHU21636XXSP,2013-04-13 17:45:00,
2013-04-13 19:50:00,56.3,41.7,30.17,WNW,292,0.0,0.0,58,0.00,CLR,,0.02,WeatherDisplay:10.37,2013-04-13 17:50:00,
2013-04-13 19:55:00,55.4,41.4,30.18,East,90,0.0,0.0,59,0.00,,,0.00,WUHU21636XXSP,2013-04-13 17:55:00,
2013-04-13 20:00:00,55.4,41.3,30.17,East,101,0.0,0.0,59,0.00,CLR,,0.02,WeatherDisplay:10.37,2013-04-13 18:00:00,
2013-04-13 20:05:00,54.7,41.2,30.19,SE,135,0.0,0.0,60,0.00,,,0.00,WUHU21636XXSP,2013-04-13 18:05:00,
2013-04-13 20:10:00,54.7,41.1,30.18,SE,135,0.0,0.0,60,0.00,CLR,,0.02,WeatherDisplay:10.37,2013-04-13 18:10:00,
2013-04-13 20:15:00,54.1,41.1,30.19,SE,135,0.0,0.0,61,0.00,,,0.00,WUHU21636XXSP,2013-04-13 18:15:00,
2013-04-13 20:20:00,53.8,41.6,30.20,WNW,293,0.7,0.7,63,0.00,,,0.00,WUHU21636XXSP,2013-04-13 18:20:00,
2013-04-13 20:25:00,53.6,41.4,30.20,WNW,293,0.0,0.7,63,0.00,,,0.00,WUHU21636XXSP,2013-04-13 18:25:00,
2013-04-13 20:30:00,53.6,41.3,30.19,WNW,292,0.0,1.0,63,0.00,CLR,,0.02,WeatherDisplay:10.37,2013-04-13 18:30:00,
2013-04-13 20:35:00,53.2,41.5,30.21,WNW,293,0.0,0.0,64,0.00,,,0.00,WUHU21636XXSP,2013-04-13 18:35:00,
2013-04-13 20:40:00,53.2,41.4,30.20,WNW,292,0.0,0.0,64,0.00,CLR,,0.02,WeatherDisplay:10.37,2013-04-13 18:40:00,
2013-04-13 20:45:00,52.7,41.4,30.22,WNW,293,2.0,2.0,65,0.00,,,0.00,WUHU21636XXSP,2013-04-13 18:45:00,
2013-04-13 20:50:00,52.7,41.3,30.21,WNW,292,2.0,2.0,65,0.00,FEW,,0.02,WeatherDisplay:10.37,2013-04-13 18:50:00,
2013-04-13 20:55:00,52.5,41.6,30.23,WNW,293,0.0,2.0,66,0.00,,,0.00,WUHU21636XXSP,2013-04-13 18:55:00,
2013-04-13 21:00:00,52.5,41.5,30.22,WNW,292,0.0,1.0,66,0.00,SCT,,0.02,WeatherDisplay:10.37,2013-04-13 19:00:00,
2013-04-13 21:05:00,52.2,41.7,30.24,NW,315,0.0,1.8,67,0.00,,,0.00,WUHU21636XXSP,2013-04-13 19:05:00,
2013-04-13 21:10:00,52.2,41.5,30.23,WNW,301,0.0,2.0,67,0.00,SCT,,0.02,WeatherDisplay:10.37,2013-04-13 19:10:00,
2013-04-13 21:15:00,52.0,42.3,30.24,NW,315,0.0,0.0,69,0.00,,,0.00,WUHU21636XXSP,2013-04-13 19:15:00,
2013-04-13 21:20:00,52.0,42.1,30.23,NW,315,0.0,0.0,69,0.00,SCT,,0.02,WeatherDisplay:10.37,2013-04-13 19:20:00,
2013-04-13 21:25:00,51.4,42.0,30.24,NW,315,0.0,0.0,70,0.00,,,0.00,WUHU21636XXSP,2013-04-13 19:25:00,
2013-04-13 21:30:00,51.4,42.0,30.23,NW,315,0.0,0.0,70,0.00,SCT,,0.02,WeatherDisplay:10.37,2013-04-13 19:30:00,
2013-04-13 21:35:00,51.1,42.5,30.24,WNW,293,0.9,0.9,72,0.00,,,0.00,WUHU21636XXSP,2013-04-13 19:35:00,
2013-04-13 21:40:00,51.1,42.4,30.23,NW,305,1.0,1.0,72,0.00,SCT,,0.02,WeatherDisplay:10.37,2013-04-13 19:40:00,
2013-04-13 21:45:00,50.5,41.9,30.24,WNW,293,0.0,0.9,72,0.00,,,0.00,WUHU21636XXSP,2013-04-13 19:45:00,
2013-04-13 21:50:00,50.5,41.8,30.23,WNW,292,0.0,0.0,72,0.00,CLR,,0.02,WeatherDisplay:10.37,2013-04-13 19:50:00,
2013-04-13 21:55:00,49.6,41.4,30.25,West,270,0.0,0.0,73,0.00,,,0.00,WUHU21636XXSP,2013-04-13 19:55:00,
2013-04-13 22:00:00,49.6,41.3,30.24,West,281,0.0,0.0,73,0.00,CLR,,0.02,WeatherDisplay:10.37,2013-04-13 20:00:00,
2013-04-13 22:05:00,49.1,41.2,30.25,West,270,0.0,0.0,74,0.00,,,0.00,WUHU21636XXSP,2013-04-13 20:05:00,
2013-04-13 22:10:00,49.1,41.2,30.25,West,270,0.0,0.0,74,0.00,CLR,,0.02,WeatherDisplay:10.37,2013-04-13 20:10:00,
2013-04-13 22:15:00,48.6,41.1,30.25,West,270,0.0,0.0,75,0.00,,,0.00,WUHU21636XXSP,2013-04-13 20:15:00,
2013-04-13 22:20:00,48.4,40.9,30.25,West,270,0.0,0.0,75,0.00,,,0.00,WUHU21636XXSP,2013-04-13 20:20:00,
2013-04-13 22:25:00,47.8,40.7,30.26,West,270,0.0,0.0,76,0.00,,,0.00,WUHU21636XXSP,2013-04-13 20:25:00,
2013-04-13 22:30:00,47.8,40.6,30.25,West,270,0.0,0.0,76,0.00,CLR,,0.02,WeatherDisplay:10.37,2013-04-13 20:30:00,
2013-04-13 22:35:00,47.5,40.7,30.26,West,270,0.0,0.0,77,0.00,,,0.00,WUHU21636XXSP,2013-04-13 20:35:00,
2013-04-13 22:40:00,47.5,40.6,30.25,West,270,0.0,0.0,77,0.00,CLR,,0.02,WeatherDisplay:10.37,2013-04-13 20:40:00,
2013-04-13 22:45:00,46.9,40.1,30.27,West,270,0.0,0.9,77,0.00,,,0.00,WUHU21636XXSP,2013-04-13 20:45:00,
2013-04-13 22:50:00,46.9,40.1,30.26,West,270,0.0,1.0,77,0.00,CLR,,0.02,WeatherDisplay:10.37,2013-04-13 20:50:00,
2013-04-13 22:55:00,46.4,40.0,30.27,SSW,203,0.0,0.0,78,0.00,,,0.00,WUHU21636XXSP,2013-04-13 20:55:00,
2013-04-13 23:00:00,46.4,39.9,30.26,SW,236,0.0,0.0,78,0.00,CLR,,0.02,WeatherDisplay:10.37,2013-04-13 21:00:00,
2013-04-13 23:05:00,46.0,39.9,30.27,South,180,0.0,0.0,79,0.00,,,0.00,WUHU21636XXSP,2013-04-13 21:05:00,
2013-04-13 23:10:00,46.0,39.9,30.26,South,191,0.0,0.0,79,0.00,CLR,,0.02,WeatherDisplay:10.37,2013-04-13 21:10:00,
2013-04-13 23:15:00,45.9,40.1,30.27,SE,135,0.0,0.0,80,0.00,,,0.00,WUHU21636XXSP,2013-04-13 21:15:00,
2013-04-13 23:20:00,45.9,40.0,30.26,ESE,123,0.0,0.0,80,0.00,CLR,,0.02,WeatherDisplay:10.37,2013-04-13 21:20:00,
2013-04-13 23:25:00,45.7,40.2,30.28,SE,135,0.0,0.0,81,0.00,,,0.00,WUHU21636XXSP,2013-04-13 21:25:00,
2013-04-13 23:30:00,45.7,40.2,30.27,SE,135,0.0,0.0,81,0.00,CLR,,0.02,WeatherDisplay:10.37,2013-04-13 21:30:00,
2013-04-13 23:35:00,45.3,39.8,30.28,SE,135,0.7,0.7,81,0.00,,,0.00,WUHU21636XXSP,2013-04-13 21:35:00,
2013-04-13 23:40:00,45.3,39.8,30.27,SE,124,1.0,1.0,81,0.00,CLR,,0.02,WeatherDisplay:10.37,2013-04-13 21:40:00,
2013-04-13 23:45:00,44.8,39.6,30.28,ESE,113,2.5,2.5,82,0.00,,,0.00,WUHU21636XXSP,2013-04-13 21:45:00,
2013-04-13 23:50:00,44.8,39.6,30.27,ESE,119,2.0,2.0,82,0.00,CLR,,0.02,WeatherDisplay:10.37,2013-04-13 21:50:00,
2013-04-13 23:55:00,44.2,39.1,30.29,SE,135,2.2,2.5,82,0.00,,,0.00,WUHU21636XXSP,2013-04-13 21:55:00,